UAL Europe — MKVS6 — position and weather

sailwx.info

Track history (hours):
 
Tides and Currents Weather Stations Pressure Air Temp Water Temp Dewpoint Dewpoint Depression Visibility Wind Speed Wind Dir Waves Ship Positions

UAL Europe

Last reported at 2015-Jan-08 06:07 UTC. Time now 2015-Feb-01 18:18 UTC.
Position N 07°28' W 014°48'.
Warning: this ship's position is 24 days out of date.

Length 145 m; draft 7.6 m.

Type: Ship (hazmat cat A). MMSI: 235010190.

Date/timePositionNaut miles runAvg speedWind from/ knotsBaromVisibWave heightAir tempDewpointWater temp
2015-Jan-08 06:07N 07°28' W 014°48'813.7
2015-Jan-08 05:33N 07°34' W 014°53'3213.8
2015-Jan-08 03:13N 07°59' W 015°13'5013.7
2015-Jan-07 23:33N 08°38' W 015°45'5713.5
2015-Jan-07 19:20N 09°23' W 016°21'1013.3
2015-Jan-07 18:33N 09°31' W 016°28'1313.3
2015-Jan-07 17:33N 09°41' W 016°36'2713.3
2015-Jan-07 15:33N 10°02' W 016°53'6513.1
2015-Jan-07 10:33N 10°53' W 017°35'4413.1
2015-Jan-07 07:11N 11°37' W 017°42'  
2015-Jan-02 06:18N 34°50' W 013°21'1313.1
2015-Jan-02 05:21N 35°02' W 013°16'1413.1
2015-Jan-02 04:17N 35°15' W 013°12'1013.1
2015-Jan-02 03:33N 35°24' W 013°09'1313.1
2015-Jan-02 02:33N 35°37' W 013°05'1313.0
2015-Jan-02 01:33N 35°50' W 013°01'1313.0
2015-Jan-02 00:33N 36°02' W 012°57'1412.8
2015-Jan-01 23:28N 36°15' W 012°53'1313.1
2015-Jan-01 22:31N 36°28' W 012°49'1313.0
2015-Jan-01 21:30N 36°40' W 012°45'1313.1
2015-Jan-01 20:33N 36°53' W 012°41'1313.3
2015-Jan-01 19:33N 37°05' W 012°37'1813.5
2015-Jan-01 18:13N 37°23' W 012°31'913.2
2015-Jan-01 17:33N 37°31' W 012°28'1313.2
2015-Jan-01 16:33N 37°44' W 012°24'1513.5
2015-Jan-01 15:27N 37°58' W 012°19'1213.1
2015-Jan-01 14:33N 38°10' W 012°16'1413.0
2015-Jan-01 13:27N 38°23' W 012°11'1413.0
2015-Jan-01 12:24N 38°37' W 012°07'1112.9
2015-Jan-01 11:31N 38°48' W 012°03'  
2014-Dec-29 17:31N 50°12' W 001°49'1313.6
2014-Dec-29 16:32N 50°15' W 001°29'1212.3
2014-Dec-29 15:33N 50°19' W 001°11'1110.8
2014-Dec-29 14:32N 50°22' W 000°54'1110.5
2014-Dec-29 13:29N 50°25' W 000°37'1111.1
2014-Dec-29 12:32N 50°27' W 000°21'1212.2
2014-Dec-29 11:33N 50°31' W 000°03'1313.2
2014-Dec-29 10:33N 50°35' E 000°17'1413.8
2014-Dec-29 09:33N 50°39' E 000°37'1413.8
2014-Dec-29 08:33N 50°47' E 000°55'1313.0
2014-Dec-29 07:32N 50°55' E 001°12'1211.9
2014-Dec-29 06:33N 51°03' E 001°25'  
Track history (hours):
 
Tides and Currents Weather Stations Pressure Air Temp Water Temp Dewpoint Dewpoint Depression Visibility Wind Speed Wind Dir Waves Ship Positions

UAL Europe

Last reported at 2015-Jan-08 06:07 UTC. Time now 2015-Feb-01 18:18 UTC.
Position N 07°28' W 014°48'.
Warning: this ship's position is 24 days out of date.

Length 145 m; draft 7.6 m.

Type: Ship (hazmat cat A). MMSI: 235010190.

Date/timePositionNaut miles runAvg speedWind from/ knotsBaromVisibWave heightAir tempDewpointWater temp
2015-Jan-08 06:07N 07°28' W 014°48'813.7
2015-Jan-08 05:33N 07°34' W 014°53'3213.8
2015-Jan-08 03:13N 07°59' W 015°13'5013.7
2015-Jan-07 23:33N 08°38' W 015°45'5713.5
2015-Jan-07 19:20N 09°23' W 016°21'1013.3
2015-Jan-07 18:33N 09°31' W 016°28'1313.3
2015-Jan-07 17:33N 09°41' W 016°36'2713.3
2015-Jan-07 15:33N 10°02' W 016°53'6513.1
2015-Jan-07 10:33N 10°53' W 017°35'4413.1
2015-Jan-07 07:11N 11°37' W 017°42'  
2015-Jan-02 06:18N 34°50' W 013°21'1313.1
2015-Jan-02 05:21N 35°02' W 013°16'1413.1
2015-Jan-02 04:17N 35°15' W 013°12'1013.1
2015-Jan-02 03:33N 35°24' W 013°09'1313.1
2015-Jan-02 02:33N 35°37' W 013°05'1313.0
2015-Jan-02 01:33N 35°50' W 013°01'1313.0
2015-Jan-02 00:33N 36°02' W 012°57'1412.8
2015-Jan-01 23:28N 36°15' W 012°53'1313.1
2015-Jan-01 22:31N 36°28' W 012°49'1313.0
2015-Jan-01 21:30N 36°40' W 012°45'1313.1
2015-Jan-01 20:33N 36°53' W 012°41'1313.3
2015-Jan-01 19:33N 37°05' W 012°37'1813.5
2015-Jan-01 18:13N 37°23' W 012°31'913.2
2015-Jan-01 17:33N 37°31' W 012°28'1313.2
2015-Jan-01 16:33N 37°44' W 012°24'1513.5
2015-Jan-01 15:27N 37°58' W 012°19'1213.1
2015-Jan-01 14:33N 38°10' W 012°16'1413.0
2015-Jan-01 13:27N 38°23' W 012°11'1413.0
2015-Jan-01 12:24N 38°37' W 012°07'1112.9
2015-Jan-01 11:31N 38°48' W 012°03'  
2014-Dec-29 17:31N 50°12' W 001°49'1313.6
2014-Dec-29 16:32N 50°15' W 001°29'1212.3
2014-Dec-29 15:33N 50°19' W 001°11'1110.8
2014-Dec-29 14:32N 50°22' W 000°54'1110.5
2014-Dec-29 13:29N 50°25' W 000°37'1111.1
2014-Dec-29 12:32N 50°27' W 000°21'1212.2
2014-Dec-29 11:33N 50°31' W 000°03'1313.2
2014-Dec-29 10:33N 50°35' E 000°17'1413.8
2014-Dec-29 09:33N 50°39' E 000°37'1413.8
2014-Dec-29 08:33N 50°47' E 000°55'1313.0
2014-Dec-29 07:32N 50°55' E 001°12'1211.9
2014-Dec-29 06:33N 51°03' E 001°25'  

Dump ship's entire track history